createdAt,value
2022-09-11T00:00:23.690Z,15.55
2022-09-11T00:05:25.938Z,18.52
2022-09-11T00:10:28.113Z,17.02
2022-09-11T00:15:30.183Z,14.60
2022-09-11T00:20:33.209Z,15.90
2022-09-11T00:25:35.922Z,17.67
2022-09-11T00:30:38.026Z,15.70
2022-09-11T00:35:41.354Z,17.10
2022-09-11T00:40:47.513Z,16.83
2022-09-11T00:45:57.431Z,19.92
2022-09-11T00:51:05.869Z,19.10
2022-09-11T00:56:09.820Z,18.00
2022-09-11T01:01:13.198Z,19.25
2022-09-11T01:06:15.978Z,18.17
2022-09-11T01:11:20.928Z,17.25
2022-09-11T01:16:43.615Z,20.48
2022-09-11T01:22:01.587Z,19.40
2022-09-11T01:27:23.824Z,22.65
2022-09-11T01:32:41.275Z,18.95
2022-09-11T01:38:24.076Z,20.60
2022-09-11T01:43:37.838Z,24.05
2022-09-11T01:48:45.283Z,20.60
2022-09-11T01:53:50.394Z,22.45
2022-09-11T01:58:58.138Z,19.20
2022-09-11T02:04:21.674Z,19.73
2022-09-11T02:09:28.398Z,19.38
2022-09-11T02:14:39.479Z,24.48
2022-09-11T02:19:41.980Z,21.63
2022-09-11T02:24:44.070Z,21.70
2022-09-11T02:29:46.600Z,25.00
2022-09-11T02:34:50.179Z,22.50
2022-09-11T02:39:59.018Z,21.50
2022-09-11T02:45:15.250Z,22.23
2022-09-11T02:50:34.253Z,21.13
2022-09-11T02:55:39.330Z,22.67
2022-09-11T03:00:42.172Z,19.27
2022-09-11T03:05:44.598Z,21.45
2022-09-11T03:10:46.690Z,20.02
2022-09-11T03:15:48.774Z,26.15
2022-09-11T03:20:51.751Z,25.77
2022-09-11T03:25:55.490Z,22.25
2022-09-11T03:30:59.176Z,19.40
2022-09-11T03:36:01.923Z,20.73
2022-09-11T03:41:04.092Z,21.33
2022-09-11T03:46:07.473Z,21.55
2022-09-11T03:51:10.886Z,23.52
2022-09-11T03:56:14.946Z,19.30
2022-09-11T04:01:22.744Z,19.45
2022-09-11T04:06:26.114Z,21.48
2022-09-11T04:11:35.497Z,22.17
2022-09-11T04:16:40.016Z,21.27
2022-09-11T04:21:42.328Z,23.58
2022-09-11T04:26:45.857Z,27.67
2022-09-11T04:31:54.183Z,24.65
2022-09-11T04:37:03.051Z,19.48
2022-09-11T04:42:06.866Z,18.88
2022-09-11T04:47:09.907Z,24.23
2022-09-11T04:52:12.133Z,24.23
2022-09-11T04:57:14.372Z,22.13
2022-09-11T05:02:16.438Z,22.80
2022-09-11T05:07:22.310Z,37.10
2022-09-11T05:12:28.495Z,31.55
2022-09-11T05:17:30.608Z,25.33
2022-09-11T05:22:32.683Z,36.20
2022-09-11T05:27:36.384Z,38.03
2022-09-11T05:32:39.484Z,28.70
2022-09-11T05:37:42.005Z,23.92
2022-09-11T05:42:45.415Z,38.25
2022-09-11T05:47:47.596Z,34.78
2022-09-11T05:52:50.904Z,30.55
2022-09-11T05:57:53.106Z,34.72
2022-09-11T06:02:56.066Z,23.98
2022-09-11T06:08:01.487Z,28.50
2022-09-11T06:13:04.235Z,27.05
2022-09-11T06:18:09.778Z,23.20
2022-09-11T06:23:12.656Z,24.55
2022-09-11T06:28:15.078Z,20.80
2022-09-11T06:33:20.204Z,22.38
2022-09-11T06:38:22.313Z,24.30
2022-09-11T06:43:24.592Z,21.55
2022-09-11T06:48:26.816Z,22.20
2022-09-11T06:53:29.082Z,21.50
2022-09-11T06:58:31.476Z,21.52
2022-09-11T07:03:33.511Z,21.05
2022-09-11T07:08:38.954Z,22.70
2022-09-11T07:13:41.755Z,24.05
2022-09-11T07:18:46.075Z,26.77
2022-09-11T07:23:57.084Z,29.52
2022-09-11T07:28:59.697Z,27.98
2022-09-11T07:34:04.768Z,29.85
2022-09-11T07:39:07.599Z,24.98
2022-09-11T07:44:18.362Z,28.67
2022-09-11T07:49:20.527Z,26.80
2022-09-11T07:54:23.000Z,24.17
2022-09-11T07:59:25.164Z,24.90
2022-09-11T08:04:28.844Z,30.58
2022-09-11T08:09:32.307Z,28.77
2022-09-11T08:14:36.876Z,27.02
2022-09-11T08:19:48.647Z,30.15
2022-09-11T08:24:51.527Z,30.88
2022-09-11T08:29:54.983Z,28.33
2022-09-11T08:34:57.267Z,27.17
2022-09-11T08:39:59.873Z,28.75
2022-09-11T08:45:03.012Z,27.73
2022-09-11T08:50:28.719Z,30.85
2022-09-11T08:55:39.445Z,25.00
2022-09-11T09:00:51.680Z,27.90
2022-09-11T09:06:10.430Z,22.65
2022-09-11T09:11:31.892Z,23.98
2022-09-11T09:16:51.798Z,23.33
2022-09-11T09:28:32.632Z,20.88
2022-09-11T09:34:13.916Z,23.08
2022-09-11T09:39:44.013Z,16.75
2022-09-11T09:44:56.606Z,18.95
2022-09-11T10:08:52.246Z,16.02
2022-09-11T10:14:50.407Z,14.05
2022-09-11T10:28:02.998Z,14.90
2022-09-11T10:39:56.493Z,10.60
2022-09-11T10:46:04.691Z,10.68
2022-09-11T10:51:46.776Z,12.52
2022-09-11T10:57:14.577Z,8.75
2022-09-11T11:02:20.789Z,9.40
2022-09-11T11:07:23.400Z,10.32
2022-09-11T11:13:05.076Z,9.43
2022-09-11T11:18:31.401Z,8.38
2022-09-11T11:23:40.821Z,7.03
2022-09-11T11:29:01.796Z,7.60
2022-09-11T11:34:11.598Z,5.78
2022-09-11T11:39:19.200Z,9.48
2022-09-11T11:45:00.296Z,7.72
2022-09-11T11:50:11.386Z,7.63
2022-09-11T11:55:24.645Z,6.80
2022-09-11T12:00:28.736Z,5.90
2022-09-11T12:05:33.926Z,10.95
2022-09-11T12:10:38.138Z,6.70
2022-09-11T12:16:00.461Z,11.18
2022-09-11T12:21:31.461Z,6.82
2022-09-11T12:26:33.575Z,8.15
2022-09-11T12:31:50.535Z,7.03
2022-09-11T12:36:57.805Z,5.78
2022-09-11T12:42:32.012Z,5.63
2022-09-11T12:47:38.628Z,4.95
2022-09-11T12:52:50.891Z,7.35
2022-09-11T12:57:53.216Z,5.20
2022-09-11T13:02:57.752Z,6.88
2022-09-11T13:08:04.907Z,4.57
2022-09-11T13:13:35.856Z,4.45
2022-09-11T13:23:42.255Z,5.18
2022-09-11T13:28:50.325Z,3.72
2022-09-11T13:33:52.965Z,3.92
2022-09-11T13:39:00.086Z,5.22
2022-09-11T13:44:03.164Z,4.22
2022-09-11T13:49:06.582Z,2.70
2022-09-11T13:54:14.915Z,4.30
2022-09-11T13:59:44.513Z,5.30
2022-09-11T14:04:47.364Z,3.60
2022-09-11T14:09:59.995Z,3.95
2022-09-11T14:15:16.555Z,4.47
2022-09-11T14:20:23.049Z,18.60
2022-09-11T14:25:25.086Z,6.55
2022-09-11T14:30:36.891Z,5.20
2022-09-11T14:35:40.041Z,3.83
2022-09-11T14:40:48.476Z,5.65
2022-09-11T14:45:51.065Z,3.58
2022-09-11T14:50:53.283Z,4.82
2022-09-11T14:55:57.555Z,3.95
2022-09-11T15:00:59.626Z,5.30
2022-09-11T15:06:01.933Z,4.15
2022-09-11T15:11:04.064Z,7.03
2022-09-11T15:16:06.736Z,4.85
2022-09-11T15:21:08.776Z,4.60
2022-09-11T15:26:11.856Z,4.18
2022-09-11T15:31:15.613Z,5.68
2022-09-11T15:36:18.488Z,7.90
2022-09-11T15:41:25.305Z,5.22
2022-09-11T15:46:27.320Z,4.28
2022-09-11T15:51:29.705Z,4.30
2022-09-11T15:56:32.988Z,4.45
2022-09-11T16:01:37.332Z,4.22
2022-09-11T16:06:42.320Z,4.25
2022-09-11T16:11:47.694Z,4.80
2022-09-11T16:16:50.657Z,7.55
2022-09-11T16:21:54.602Z,4.80
2022-09-11T16:26:57.360Z,5.38
2022-09-11T16:31:59.324Z,6.53
2022-09-11T16:37:01.370Z,7.63
2022-09-11T16:42:03.723Z,8.82
2022-09-11T16:47:06.696Z,6.30
2022-09-11T16:52:08.660Z,5.25
2022-09-11T16:57:11.737Z,5.93
2022-09-11T17:02:17.050Z,5.85
2022-09-11T17:07:19.024Z,11.98
2022-09-11T17:12:21.198Z,5.78
2022-09-11T17:17:23.197Z,6.30
2022-09-11T17:22:25.255Z,15.98
2022-09-11T17:27:29.783Z,8.85
2022-09-11T17:32:31.848Z,4.68
2022-09-11T17:37:33.894Z,4.78
2022-09-11T17:42:35.923Z,5.88
2022-09-11T17:47:38.143Z,4.97
2022-09-11T17:52:40.370Z,6.05
2022-09-11T17:57:45.250Z,7.80
2022-09-11T18:02:49.942Z,7.18
2022-09-11T18:07:52.080Z,7.63
2022-09-11T18:12:54.113Z,6.00
2022-09-11T18:17:56.605Z,5.47
2022-09-11T18:22:59.763Z,5.10
2022-09-11T18:28:03.560Z,5.22
2022-09-11T18:33:10.887Z,5.47
2022-09-11T18:38:13.067Z,6.03
2022-09-11T18:43:15.129Z,8.27
2022-09-11T18:48:17.380Z,8.48
2022-09-11T18:53:20.017Z,6.63
2022-09-11T18:58:22.603Z,7.03
2022-09-11T19:03:25.004Z,6.40
2022-09-11T19:08:27.140Z,8.05
2022-09-11T19:13:29.257Z,8.82
2022-09-11T19:18:31.969Z,7.18
2022-09-11T19:23:39.701Z,8.02
2022-09-11T19:28:43.388Z,6.70
2022-09-11T19:33:45.604Z,9.27
2022-09-11T19:38:49.591Z,6.97
2022-09-11T19:43:51.776Z,9.30
2022-09-11T19:49:00.327Z,6.93
2022-09-11T19:54:04.072Z,8.90
2022-09-11T19:59:07.929Z,7.95
2022-09-11T20:04:11.332Z,7.90
2022-09-11T20:09:30.381Z,8.80
2022-09-11T20:14:33.580Z,10.13
2022-09-11T20:19:35.596Z,12.60
2022-09-11T20:24:38.713Z,10.68
2022-09-11T20:29:43.036Z,11.93
2022-09-11T20:34:45.121Z,9.02
2022-09-11T20:39:47.418Z,9.73
2022-09-11T20:44:49.465Z,10.25
2022-09-11T20:49:53.989Z,9.68
2022-09-11T20:54:56.001Z,11.45
2022-09-11T20:59:58.108Z,10.70
2022-09-11T21:05:00.786Z,10.85
2022-09-11T21:10:02.924Z,10.18
2022-09-11T21:15:06.631Z,9.98
2022-09-11T21:20:09.018Z,12.52
2022-09-11T21:25:11.107Z,11.15
2022-09-11T21:30:13.283Z,13.18
2022-09-11T21:35:15.469Z,12.43
2022-09-11T21:40:17.549Z,11.43
2022-09-11T21:45:19.729Z,13.65
2022-09-11T21:50:21.846Z,11.68
2022-09-11T21:55:23.812Z,12.60
2022-09-11T22:00:25.784Z,12.43
2022-09-11T22:05:27.958Z,12.38
2022-09-11T22:10:29.911Z,13.93
2022-09-11T22:15:31.873Z,13.15
2022-09-11T22:20:34.337Z,15.40
2022-09-11T22:25:37.528Z,15.57
2022-09-11T22:30:43.815Z,13.15
2022-09-11T22:35:49.354Z,13.43
2022-09-11T22:40:53.435Z,14.05
2022-09-11T22:45:55.574Z,13.35
2022-09-11T22:50:57.755Z,16.83
2022-09-11T22:56:00.185Z,12.20
2022-09-11T23:01:03.758Z,14.40
2022-09-11T23:06:24.383Z,13.65
2022-09-11T23:11:28.289Z,15.18
2022-09-11T23:16:31.117Z,14.02
2022-09-11T23:21:35.440Z,11.70
2022-09-11T23:26:37.747Z,13.70
2022-09-11T23:31:40.603Z,16.50
2022-09-11T23:36:43.774Z,17.38
2022-09-11T23:41:45.740Z,16.13
2022-09-11T23:46:47.745Z,14.95
2022-09-11T23:51:49.880Z,15.48
2022-09-11T23:56:51.921Z,17.25
